sensor_id;sensor_type;location;lat;lon;timestamp;P1;durP1;ratioP1;P2;durP2;ratioP2
59828;SDS011;45708;51.848;107.620;2022-09-17T00:03:06;3.60;;;1.70;;
59828;SDS011;45708;51.848;107.620;2022-09-17T00:08:08;2.25;;;1.65;;
59828;SDS011;45708;51.848;107.620;2022-09-17T00:13:12;1.50;;;1.40;;
59828;SDS011;45708;51.848;107.620;2022-09-17T00:18:13;3.42;;;3.10;;
59828;SDS011;45708;51.848;107.620;2022-09-17T00:23:15;3.20;;;1.80;;
59828;SDS011;45708;51.848;107.620;2022-09-17T00:28:16;10.57;;;3.10;;
59828;SDS011;45708;51.848;107.620;2022-09-17T00:33:17;2.10;;;1.48;;
59828;SDS011;45708;51.848;107.620;2022-09-17T00:38:18;6.00;;;1.60;;
59828;SDS011;45708;51.848;107.620;2022-09-17T00:48:38;2.63;;;2.10;;
59828;SDS011;45708;51.848;107.620;2022-09-17T00:53:39;4.53;;;2.63;;
59828;SDS011;45708;51.848;107.620;2022-09-17T00:58:41;3.42;;;2.03;;
59828;SDS011;45708;51.848;107.620;2022-09-17T01:03:42;1.50;;;1.40;;
59828;SDS011;45708;51.848;107.620;2022-09-17T01:25:12;1.40;;;1.30;;
59828;SDS011;45708;51.848;107.620;2022-09-17T01:30:28;1.98;;;1.70;;
59828;SDS011;45708;51.848;107.620;2022-09-17T01:35:33;3.42;;;1.52;;
59828;SDS011;45708;51.848;107.620;2022-09-17T01:41:00;5.13;;;2.55;;
59828;SDS011;45708;51.848;107.620;2022-09-17T01:46:16;4.60;;;2.15;;
59828;SDS011;45708;51.848;107.620;2022-09-17T01:51:19;4.55;;;2.40;;
59828;SDS011;45708;51.848;107.620;2022-09-17T01:56:24;1.70;;;1.60;;
59828;SDS011;45708;51.848;107.620;2022-09-17T02:01:30;2.83;;;1.80;;
59828;SDS011;45708;51.848;107.620;2022-09-17T02:06:34;2.70;;;1.20;;
59828;SDS011;45708;51.848;107.620;2022-09-17T02:11:40;1.30;;;1.20;;
59828;SDS011;45708;51.848;107.620;2022-09-17T02:16:47;3.33;;;1.50;;
59828;SDS011;45708;51.848;107.620;2022-09-17T02:27:07;3.17;;;1.75;;
59828;SDS011;45708;51.848;107.620;2022-09-17T02:32:18;2.95;;;1.80;;
59828;SDS011;45708;51.848;107.620;2022-09-17T02:37:19;4.10;;;1.67;;
59828;SDS011;45708;51.848;107.620;2022-09-17T02:42:21;4.85;;;1.73;;
59828;SDS011;45708;51.848;107.620;2022-09-17T02:47:31;7.72;;;2.78;;
59828;SDS011;45708;51.848;107.620;2022-09-17T03:03:41;4.05;;;2.63;;
59828;SDS011;45708;51.848;107.620;2022-09-17T03:08:45;4.47;;;1.80;;
59828;SDS011;45708;51.848;107.620;2022-09-17T03:13:46;2.22;;;1.95;;
59828;SDS011;45708;51.848;107.620;2022-09-17T03:18:47;1.67;;;1.50;;
59828;SDS011;45708;51.848;107.620;2022-09-17T03:23:48;3.13;;;1.50;;
59828;SDS011;45708;51.848;107.620;2022-09-17T03:28:49;3.28;;;1.83;;
59828;SDS011;45708;51.848;107.620;2022-09-17T03:33:49;6.53;;;2.03;;
59828;SDS011;45708;51.848;107.620;2022-09-17T03:38:56;4.10;;;2.10;;
59828;SDS011;45708;51.848;107.620;2022-09-17T03:43:58;1.83;;;1.27;;
59828;SDS011;45708;51.848;107.620;2022-09-17T03:48:59;2.80;;;1.90;;
59828;SDS011;45708;51.848;107.620;2022-09-17T03:53:59;3.55;;;1.80;;
59828;SDS011;45708;51.848;107.620;2022-09-17T03:59:00;2.20;;;1.80;;
59828;SDS011;45708;51.848;107.620;2022-09-17T04:04:02;2.13;;;1.60;;
59828;SDS011;45708;51.848;107.620;2022-09-17T04:09:03;3.42;;;1.77;;
59828;SDS011;45708;51.848;107.620;2022-09-17T04:14:04;1.70;;;1.50;;
59828;SDS011;45708;51.848;107.620;2022-09-17T04:19:05;6.57;;;1.65;;
59828;SDS011;45708;51.848;107.620;2022-09-17T04:24:07;3.22;;;1.90;;
59828;SDS011;45708;51.848;107.620;2022-09-17T04:29:08;1.52;;;1.23;;
59828;SDS011;45708;51.848;107.620;2022-09-17T04:34:09;2.55;;;2.00;;
59828;SDS011;45708;51.848;107.620;2022-09-17T04:39:10;4.38;;;1.77;;
59828;SDS011;45708;51.848;107.620;2022-09-17T04:44:10;1.52;;;1.15;;
59828;SDS011;45708;51.848;107.620;2022-09-17T04:49:11;1.52;;;1.42;;
59828;SDS011;45708;51.848;107.620;2022-09-17T04:54:12;4.55;;;1.90;;
59828;SDS011;45708;51.848;107.620;2022-09-17T04:59:13;7.45;;;6.63;;
59828;SDS011;45708;51.848;107.620;2022-09-17T05:04:14;1.88;;;1.52;;
59828;SDS011;45708;51.848;107.620;2022-09-17T05:09:15;2.67;;;1.70;;
59828;SDS011;45708;51.848;107.620;2022-09-17T05:14:15;1.83;;;1.42;;
59828;SDS011;45708;51.848;107.620;2022-09-17T05:19:16;2.10;;;1.63;;
59828;SDS011;45708;51.848;107.620;2022-09-17T05:24:17;1.90;;;1.80;;
59828;SDS011;45708;51.848;107.620;2022-09-17T05:29:18;1.52;;;1.30;;
59828;SDS011;45708;51.848;107.620;2022-09-17T05:34:19;3.17;;;1.98;;
59828;SDS011;45708;51.848;107.620;2022-09-17T05:39:20;2.58;;;1.33;;
59828;SDS011;45708;51.848;107.620;2022-09-17T05:44:21;1.70;;;1.38;;
59828;SDS011;45708;51.848;107.620;2022-09-17T05:49:22;2.42;;;1.30;;
59828;SDS011;45708;51.848;107.620;2022-09-17T05:54:22;2.33;;;1.50;;
59828;SDS011;45708;51.848;107.620;2022-09-17T05:59:23;2.58;;;1.70;;
59828;SDS011;45708;51.848;107.620;2022-09-17T06:04:24;2.10;;;1.52;;
59828;SDS011;45708;51.848;107.620;2022-09-17T06:09:25;3.72;;;1.70;;
59828;SDS011;45708;51.848;107.620;2022-09-17T06:14:26;3.47;;;1.48;;
59828;SDS011;45708;51.848;107.620;2022-09-17T06:19:26;3.40;;;1.20;;
59828;SDS011;45708;51.848;107.620;2022-09-17T06:24:27;3.20;;;1.67;;
59828;SDS011;45708;51.848;107.620;2022-09-17T06:29:28;5.70;;;3.25;;
59828;SDS011;45708;51.848;107.620;2022-09-17T06:34:29;3.42;;;1.80;;
59828;SDS011;45708;51.848;107.620;2022-09-17T06:39:30;1.25;;;1.10;;
59828;SDS011;45708;51.848;107.620;2022-09-17T06:44:31;1.70;;;1.42;;
59828;SDS011;45708;51.848;107.620;2022-09-17T06:49:31;1.70;;;1.20;;
59828;SDS011;45708;51.848;107.620;2022-09-17T06:54:32;2.53;;;1.75;;
59828;SDS011;45708;51.848;107.620;2022-09-17T06:59:33;1.58;;;1.23;;
59828;SDS011;45708;51.848;107.620;2022-09-17T07:04:34;1.73;;;1.27;;
59828;SDS011;45708;51.848;107.620;2022-09-17T07:09:35;2.88;;;1.08;;
59828;SDS011;45708;51.848;107.620;2022-09-17T07:14:37;1.70;;;0.93;;
59828;SDS011;45708;51.848;107.620;2022-09-17T07:19:37;2.17;;;1.50;;
59828;SDS011;45708;51.848;107.620;2022-09-17T07:24:38;2.45;;;1.00;;
59828;SDS011;45708;51.848;107.620;2022-09-17T07:29:39;1.95;;;1.67;;
59828;SDS011;45708;51.848;107.620;2022-09-17T07:34:40;1.08;;;1.00;;
59828;SDS011;45708;51.848;107.620;2022-09-17T07:39:41;1.63;;;1.20;;
59828;SDS011;45708;51.848;107.620;2022-09-17T07:44:42;1.55;;;1.30;;
59828;SDS011;45708;51.848;107.620;2022-09-17T07:49:42;3.20;;;1.60;;
59828;SDS011;45708;51.848;107.620;2022-09-17T07:54:43;2.80;;;1.40;;
59828;SDS011;45708;51.848;107.620;2022-09-17T07:59:44;3.72;;;2.30;;
59828;SDS011;45708;51.848;107.620;2022-09-17T08:04:45;3.65;;;1.35;;
59828;SDS011;45708;51.848;107.620;2022-09-17T08:09:46;1.35;;;1.20;;
59828;SDS011;45708;51.848;107.620;2022-09-17T08:14:46;2.05;;;1.38;;
59828;SDS011;45708;51.848;107.620;2022-09-17T08:19:48;3.55;;;1.13;;
59828;SDS011;45708;51.848;107.620;2022-09-17T08:24:48;4.10;;;2.35;;
59828;SDS011;45708;51.848;107.620;2022-09-17T08:29:49;3.13;;;1.77;;
59828;SDS011;45708;51.848;107.620;2022-09-17T08:34:51;1.75;;;1.40;;
59828;SDS011;45708;51.848;107.620;2022-09-17T08:39:52;3.05;;;1.75;;
59828;SDS011;45708;51.848;107.620;2022-09-17T08:44:52;3.88;;;1.88;;
59828;SDS011;45708;51.848;107.620;2022-09-17T08:49:56;7.15;;;2.58;;
59828;SDS011;45708;51.848;107.620;2022-09-17T09:00:20;3.60;;;3.00;;
59828;SDS011;45708;51.848;107.620;2022-09-17T09:05:22;3.78;;;2.95;;
59828;SDS011;45708;51.848;107.620;2022-09-17T09:21:13;3.80;;;2.42;;
59828;SDS011;45708;51.848;107.620;2022-09-17T09:36:53;6.68;;;3.55;;
59828;SDS011;45708;51.848;107.620;2022-09-17T09:42:28;4.20;;;2.70;;
59828;SDS011;45708;51.848;107.620;2022-09-17T09:47:40;6.95;;;3.80;;
59828;SDS011;45708;51.848;107.620;2022-09-17T09:53:08;7.25;;;5.68;;
59828;SDS011;45708;51.848;107.620;2022-09-17T09:58:36;7.72;;;4.78;;
59828;SDS011;45708;51.848;107.620;2022-09-17T10:03:39;7.30;;;4.80;;
59828;SDS011;45708;51.848;107.620;2022-09-17T10:14:21;6.72;;;4.25;;
59828;SDS011;45708;51.848;107.620;2022-09-17T10:19:26;6.13;;;3.70;;
59828;SDS011;45708;51.848;107.620;2022-09-17T10:24:28;7.78;;;5.07;;
59828;SDS011;45708;51.848;107.620;2022-09-17T10:29:33;10.10;;;6.55;;
59828;SDS011;45708;51.848;107.620;2022-09-17T10:34:34;13.70;;;7.80;;
59828;SDS011;45708;51.848;107.620;2022-09-17T10:39:35;9.50;;;5.03;;
59828;SDS011;45708;51.848;107.620;2022-09-17T10:44:38;14.65;;;8.25;;
59828;SDS011;45708;51.848;107.620;2022-09-17T11:00:37;18.13;;;9.90;;
59828;SDS011;45708;51.848;107.620;2022-09-17T11:21:40;22.08;;;13.07;;
59828;SDS011;45708;51.848;107.620;2022-09-17T11:36:56;54.13;;;22.73;;
59828;SDS011;45708;51.848;107.620;2022-09-17T11:42:00;33.35;;;19.02;;
59828;SDS011;45708;51.848;107.620;2022-09-17T11:47:09;20.42;;;11.48;;
59828;SDS011;45708;51.848;107.620;2022-09-17T11:57:30;14.80;;;9.45;;
59828;SDS011;45708;51.848;107.620;2022-09-17T12:07:53;12.45;;;8.35;;
59828;SDS011;45708;51.848;107.620;2022-09-17T12:12:57;27.98;;;14.50;;
59828;SDS011;45708;51.848;107.620;2022-09-17T12:40:30;27.40;;;16.52;;
59828;SDS011;45708;51.848;107.620;2022-09-17T12:45:42;20.23;;;11.77;;
59828;SDS011;45708;51.848;107.620;2022-09-17T13:02:00;21.48;;;12.65;;
59828;SDS011;45708;51.848;107.620;2022-09-17T13:07:15;18.83;;;11.38;;
59828;SDS011;45708;51.848;107.620;2022-09-17T13:22:43;15.75;;;10.27;;
59828;SDS011;45708;51.848;107.620;2022-09-17T13:27:47;20.58;;;11.15;;
59828;SDS011;45708;51.848;107.620;2022-09-17T13:32:50;20.80;;;11.43;;
59828;SDS011;45708;51.848;107.620;2022-09-17T13:42:53;26.15;;;13.95;;
59828;SDS011;45708;51.848;107.620;2022-09-17T13:47:58;35.78;;;17.80;;
59828;SDS011;45708;51.848;107.620;2022-09-17T13:53:07;42.53;;;20.42;;
59828;SDS011;45708;51.848;107.620;2022-09-17T14:08:29;83.57;;;38.65;;
59828;SDS011;45708;51.848;107.620;2022-09-17T14:13:41;57.30;;;26.95;;
59828;SDS011;45708;51.848;107.620;2022-09-17T14:18:42;57.20;;;26.48;;
59828;SDS011;45708;51.848;107.620;2022-09-17T14:23:55;57.08;;;27.23;;
59828;SDS011;45708;51.848;107.620;2022-09-17T14:29:15;29.75;;;16.25;;
59828;SDS011;45708;51.848;107.620;2022-09-17T14:34:20;50.53;;;25.63;;
59828;SDS011;45708;51.848;107.620;2022-09-17T14:39:35;38.10;;;20.92;;
59828;SDS011;45708;51.848;107.620;2022-09-17T14:44:43;43.65;;;21.23;;
59828;SDS011;45708;51.848;107.620;2022-09-17T14:49:53;38.88;;;19.90;;
59828;SDS011;45708;51.848;107.620;2022-09-17T15:00:19;38.15;;;18.00;;
59828;SDS011;45708;51.848;107.620;2022-09-17T15:05:23;39.15;;;19.83;;
59828;SDS011;45708;51.848;107.620;2022-09-17T15:10:48;22.92;;;13.48;;
59828;SDS011;45708;51.848;107.620;2022-09-17T15:16:03;36.08;;;14.93;;
59828;SDS011;45708;51.848;107.620;2022-09-17T15:21:13;26.27;;;13.45;;
59828;SDS011;45708;51.848;107.620;2022-09-17T15:26:31;33.15;;;15.75;;
59828;SDS011;45708;51.848;107.620;2022-09-17T15:31:37;29.73;;;14.75;;
59828;SDS011;45708;51.848;107.620;2022-09-17T15:36:37;26.77;;;14.38;;
59828;SDS011;45708;51.848;107.620;2022-09-17T15:41:41;24.10;;;12.00;;
59828;SDS011;45708;51.848;107.620;2022-09-17T15:46:42;21.50;;;10.98;;
59828;SDS011;45708;51.848;107.620;2022-09-17T15:51:43;16.85;;;9.38;;
59828;SDS011;45708;51.848;107.620;2022-09-17T15:56:44;18.75;;;10.25;;
59828;SDS011;45708;51.848;107.620;2022-09-17T16:01:57;18.05;;;10.57;;
59828;SDS011;45708;51.848;107.620;2022-09-17T16:12:07;26.33;;;13.50;;
59828;SDS011;45708;51.848;107.620;2022-09-17T16:17:31;26.25;;;15.98;;
59828;SDS011;45708;51.848;107.620;2022-09-17T16:22:33;26.23;;;13.77;;
59828;SDS011;45708;51.848;107.620;2022-09-17T16:27:38;20.58;;;12.15;;
59828;SDS011;45708;51.848;107.620;2022-09-17T16:33:00;20.23;;;11.13;;
59828;SDS011;45708;51.848;107.620;2022-09-17T16:38:00;15.63;;;9.18;;
59828;SDS011;45708;51.848;107.620;2022-09-17T16:43:02;11.18;;;6.60;;
59828;SDS011;45708;51.848;107.620;2022-09-17T16:48:03;11.93;;;6.47;;
59828;SDS011;45708;51.848;107.620;2022-09-17T16:53:05;15.30;;;7.70;;
59828;SDS011;45708;51.848;107.620;2022-09-17T16:58:05;11.15;;;5.88;;
59828;SDS011;45708;51.848;107.620;2022-09-17T17:03:06;12.60;;;6.63;;
59828;SDS011;45708;51.848;107.620;2022-09-17T17:08:10;13.07;;;6.75;;
59828;SDS011;45708;51.848;107.620;2022-09-17T17:13:11;12.00;;;5.60;;
59828;SDS011;45708;51.848;107.620;2022-09-17T17:18:12;7.57;;;4.57;;
59828;SDS011;45708;51.848;107.620;2022-09-17T17:23:13;7.80;;;5.18;;
59828;SDS011;45708;51.848;107.620;2022-09-17T17:28:14;11.30;;;5.97;;
59828;SDS011;45708;51.848;107.620;2022-09-17T17:33:15;8.23;;;5.65;;
59828;SDS011;45708;51.848;107.620;2022-09-17T17:38:16;9.80;;;4.68;;
59828;SDS011;45708;51.848;107.620;2022-09-17T17:43:17;6.25;;;3.97;;
59828;SDS011;45708;51.848;107.620;2022-09-17T17:48:18;7.50;;;4.10;;
59828;SDS011;45708;51.848;107.620;2022-09-17T17:53:19;4.10;;;2.90;;
59828;SDS011;45708;51.848;107.620;2022-09-17T17:58:20;3.45;;;2.90;;
59828;SDS011;45708;51.848;107.620;2022-09-17T18:03:21;5.47;;;3.45;;
59828;SDS011;45708;51.848;107.620;2022-09-17T18:08:22;3.97;;;3.08;;
59828;SDS011;45708;51.848;107.620;2022-09-17T18:13:23;6.65;;;4.00;;
59828;SDS011;45708;51.848;107.620;2022-09-17T18:18:25;3.53;;;3.17;;
59828;SDS011;45708;51.848;107.620;2022-09-17T18:23:30;5.88;;;3.28;;
59828;SDS011;45708;51.848;107.620;2022-09-17T18:28:34;2.50;;;2.28;;
59828;SDS011;45708;51.848;107.620;2022-09-17T18:33:35;2.75;;;2.40;;
59828;SDS011;45708;51.848;107.620;2022-09-17T18:38:36;3.47;;;2.60;;
59828;SDS011;45708;51.848;107.620;2022-09-17T18:43:37;3.08;;;2.42;;
59828;SDS011;45708;51.848;107.620;2022-09-17T18:48:38;3.88;;;2.80;;
59828;SDS011;45708;51.848;107.620;2022-09-17T18:53:39;4.22;;;3.30;;
59828;SDS011;45708;51.848;107.620;2022-09-17T18:58:40;4.75;;;3.10;;
59828;SDS011;45708;51.848;107.620;2022-09-17T19:03:41;4.20;;;3.35;;
59828;SDS011;45708;51.848;107.620;2022-09-17T19:08:43;3.95;;;2.58;;
59828;SDS011;45708;51.848;107.620;2022-09-17T19:13:45;2.70;;;2.38;;
59828;SDS011;45708;51.848;107.620;2022-09-17T19:18:46;3.40;;;2.67;;
59828;SDS011;45708;51.848;107.620;2022-09-17T19:23:48;2.58;;;2.25;;
59828;SDS011;45708;51.848;107.620;2022-09-17T19:28:51;4.28;;;2.70;;
59828;SDS011;45708;51.848;107.620;2022-09-17T19:33:53;11.95;;;7.28;;
59828;SDS011;45708;51.848;107.620;2022-09-17T19:38:55;12.98;;;7.13;;
59828;SDS011;45708;51.848;107.620;2022-09-17T19:43:56;14.18;;;8.80;;
59828;SDS011;45708;51.848;107.620;2022-09-17T19:48:57;14.57;;;8.18;;
59828;SDS011;45708;51.848;107.620;2022-09-17T19:53:57;11.00;;;7.85;;
59828;SDS011;45708;51.848;107.620;2022-09-17T19:58:58;14.95;;;7.90;;
59828;SDS011;45708;51.848;107.620;2022-09-17T20:03:59;12.23;;;7.57;;
59828;SDS011;45708;51.848;107.620;2022-09-17T20:09:00;8.55;;;5.63;;
59828;SDS011;45708;51.848;107.620;2022-09-17T20:14:02;4.85;;;3.60;;
59828;SDS011;45708;51.848;107.620;2022-09-17T20:19:03;4.50;;;3.60;;
59828;SDS011;45708;51.848;107.620;2022-09-17T20:24:05;4.55;;;2.85;;
59828;SDS011;45708;51.848;107.620;2022-09-17T20:29:07;2.50;;;2.30;;
59828;SDS011;45708;51.848;107.620;2022-09-17T20:34:08;3.63;;;2.55;;
59828;SDS011;45708;51.848;107.620;2022-09-17T20:39:10;4.53;;;2.67;;
59828;SDS011;45708;51.848;107.620;2022-09-17T20:44:10;3.70;;;2.00;;
59828;SDS011;45708;51.848;107.620;2022-09-17T20:49:11;3.33;;;3.03;;
59828;SDS011;45708;51.848;107.620;2022-09-17T20:54:12;6.28;;;3.92;;
59828;SDS011;45708;51.848;107.620;2022-09-17T20:59:13;7.18;;;4.47;;
59828;SDS011;45708;51.848;107.620;2022-09-17T21:04:15;6.53;;;4.22;;
59828;SDS011;45708;51.848;107.620;2022-09-17T21:09:17;5.53;;;3.65;;
59828;SDS011;45708;51.848;107.620;2022-09-17T21:14:18;3.17;;;2.75;;
59828;SDS011;45708;51.848;107.620;2022-09-17T21:19:19;4.40;;;2.97;;
59828;SDS011;45708;51.848;107.620;2022-09-17T21:24:20;4.28;;;2.47;;
59828;SDS011;45708;51.848;107.620;2022-09-17T21:29:21;3.05;;;2.25;;
59828;SDS011;45708;51.848;107.620;2022-09-17T21:34:22;2.92;;;2.53;;
59828;SDS011;45708;51.848;107.620;2022-09-17T21:39:23;3.08;;;2.35;;
59828;SDS011;45708;51.848;107.620;2022-09-17T21:44:23;3.40;;;2.47;;
59828;SDS011;45708;51.848;107.620;2022-09-17T21:49:24;3.45;;;2.50;;
59828;SDS011;45708;51.848;107.620;2022-09-17T21:54:25;3.63;;;2.13;;
59828;SDS011;45708;51.848;107.620;2022-09-17T21:59:26;3.92;;;2.78;;
59828;SDS011;45708;51.848;107.620;2022-09-17T22:04:26;6.55;;;3.70;;
59828;SDS011;45708;51.848;107.620;2022-09-17T22:09:27;5.72;;;3.95;;
59828;SDS011;45708;51.848;107.620;2022-09-17T22:14:28;7.00;;;4.30;;
59828;SDS011;45708;51.848;107.620;2022-09-17T22:19:29;4.90;;;3.75;;
59828;SDS011;45708;51.848;107.620;2022-09-17T22:24:30;6.38;;;5.00;;
59828;SDS011;45708;51.848;107.620;2022-09-17T22:29:31;7.35;;;4.88;;
59828;SDS011;45708;51.848;107.620;2022-09-17T22:34:31;7.30;;;4.78;;
59828;SDS011;45708;51.848;107.620;2022-09-17T22:39:32;7.28;;;5.63;;
59828;SDS011;45708;51.848;107.620;2022-09-17T22:44:33;6.50;;;5.40;;
59828;SDS011;45708;51.848;107.620;2022-09-17T22:49:34;6.47;;;4.70;;
59828;SDS011;45708;51.848;107.620;2022-09-17T22:54:35;11.18;;;5.03;;
59828;SDS011;45708;51.848;107.620;2022-09-17T22:59:35;6.25;;;4.47;;
59828;SDS011;45708;51.848;107.620;2022-09-17T23:04:36;9.43;;;5.07;;
59828;SDS011;45708;51.848;107.620;2022-09-17T23:09:37;12.50;;;5.63;;
59828;SDS011;45708;51.848;107.620;2022-09-17T23:14:38;9.98;;;5.38;;
59828;SDS011;45708;51.848;107.620;2022-09-17T23:19:39;8.45;;;5.15;;
59828;SDS011;45708;51.848;107.620;2022-09-17T23:24:39;10.60;;;5.35;;
59828;SDS011;45708;51.848;107.620;2022-09-17T23:29:40;9.25;;;5.07;;
59828;SDS011;45708;51.848;107.620;2022-09-17T23:34:41;8.00;;;5.18;;
59828;SDS011;45708;51.848;107.620;2022-09-17T23:39:42;7.45;;;4.45;;
59828;SDS011;45708;51.848;107.620;2022-09-17T23:44:42;10.50;;;5.90;;
59828;SDS011;45708;51.848;107.620;2022-09-17T23:49:43;9.10;;;5.63;;
59828;SDS011;45708;51.848;107.620;2022-09-17T23:54:44;11.88;;;6.22;;
59828;SDS011;45708;51.848;107.620;2022-09-17T23:59:45;9.15;;;6.40;;
